Time;durP1;ratioP1;P1;durP2;ratioP2;P2;SDS_P1;SDS_P2;PMS_P1;PMS_P2;Temp;Humidity;BMP_temperature;BMP_pressure;BME280_temperature;BME280_humidity;BME280_pressure;Samples;Min_cycle;Max_cycle;Signal;HPM_P1;HPM_P2
2023/03/07 00:02:11;;;;;;;60.30;36.25;;;7.60;99.90;;;;;;4924096;29;20056;-74
2023/03/07 00:04:37;;;;;;;54.92;33.38;;;7.70;99.90;;;;;;4914683;29;20027;-73
2023/03/07 00:07:03;;;;;;;47.33;29.65;;;7.70;99.90;;;;;;4928058;29;20051;-74
2023/03/07 00:09:29;;;;;;;45.33;29.90;;;7.80;99.90;;;;;;4934265;29;20501;-74
2023/03/07 00:11:55;;;;;;;57.83;36.83;;;7.80;99.90;;;;;;4934041;29;20039;-75
2023/03/07 00:14:20;;;;;;;63.92;40.75;;;7.90;99.90;;;;;;4934011;29;20055;-74
2023/03/07 00:16:50;;;;;;;60.55;35.65;;;7.90;99.90;;;;;;4923595;29;20028;-73
2023/03/07 00:19:17;;;;;;;54.70;36.15;;;7.80;99.90;;;;;;4931533;29;20112;-74
2023/03/07 00:21:44;;;;;;;58.15;35.63;;;7.80;99.90;;;;;;4933732;29;20075;-74
2023/03/07 00:24:10;;;;;;;57.38;35.20;;;7.70;99.90;;;;;;4933782;29;20031;-74
2023/03/07 00:26:38;;;;;;;58.55;37.17;;;7.80;99.90;;;;;;4933617;29;20036;-73
2023/03/07 00:29:06;;;;;;;63.10;38.25;;;7.80;99.90;;;;;;4933887;29;20110;-73
2023/03/07 00:31:32;;;;;;;58.30;38.70;;;7.80;99.90;;;;;;4932721;29;20034;-73
2023/03/07 00:33:59;;;;;;;56.97;36.35;;;7.50;99.90;;;;;;4933612;29;20043;-74
2023/03/07 00:36:25;;;;;;;54.47;35.60;;;7.40;99.90;;;;;;4934278;29;20020;-74
2023/03/07 00:38:51;;;;;;;57.10;36.80;;;7.40;99.90;;;;;;4936032;29;20067;-74
2023/03/07 00:41:23;;;;;;;50.38;32.78;;;7.40;99.90;;;;;;4937284;29;20024;-75
2023/03/07 00:43:49;;;;;;;60.53;39.85;;;7.50;99.90;;;;;;4937054;29;20027;-73
2023/03/07 00:46:17;;;;;;;56.08;37.38;;;7.40;99.90;;;;;;4919966;29;20035;-74
2023/03/07 00:48:43;;;;;;;53.17;35.00;;;7.50;99.90;;;;;;4936912;29;20047;-74
2023/03/07 00:51:12;;;;;;;48.72;33.72;;;7.50;99.90;;;;;;4935815;29;20028;-74
2023/03/07 00:53:38;;;;;;;57.20;35.47;;;7.50;99.90;;;;;;4919898;29;20040;-75
2023/03/07 00:56:08;;;;;;;56.90;34.92;;;7.50;99.90;;;;;;4919996;29;20034;-73
2023/03/07 00:58:35;;;;;;;50.55;35.08;;;7.60;99.90;;;;;;4919874;29;20107;-73
2023/03/07 01:01:03;;;;;;;53.17;34.63;;;7.60;99.90;;;;;;4919689;29;20031;-75
2023/03/07 01:03:29;;;;;;;51.60;33.67;;;7.60;99.90;;;;;;4935608;29;20391;-74
2023/03/07 01:05:55;;;;;;;52.45;32.80;;;7.50;99.90;;;;;;4936540;29;20553;-75
2023/03/07 01:08:22;;;;;;;50.58;34.25;;;7.60;99.90;;;;;;4935778;29;20034;-75
2023/03/07 01:10:48;;;;;;;48.60;34.42;;;7.60;99.90;;;;;;4936692;29;20079;-75
2023/03/07 01:13:17;;;;;;;53.80;33.83;;;7.60;99.90;;;;;;4936222;29;20104;-74
2023/03/07 01:15:43;;;;;;;46.33;31.42;;;7.60;99.90;;;;;;4948301;29;20020;-74
2023/03/07 01:18:09;;;;;;;51.33;31.15;;;7.50;99.90;;;;;;4936531;29;20032;-74
2023/03/07 01:20:37;;;;;;;43.90;29.33;;;7.50;99.90;;;;;;4935361;29;20118;-73
2023/03/07 01:23:03;;;;;;;52.95;34.33;;;7.50;99.90;;;;;;4938964;29;20067;-75
2023/03/07 01:25:30;;;;;;;52.33;36.13;;;7.50;99.90;;;;;;4944488;28;20016;-74
2023/03/07 01:27:56;;;;;;;76.93;46.30;;;7.50;99.90;;;;;;4919242;29;20035;-75
2023/03/07 01:30:24;;;;;;;77.22;50.17;;;7.50;99.90;;;;;;4936661;29;20028;-76
2023/03/07 01:32:57;;;;;;;78.82;44.22;;;7.50;99.90;;;;;;4935087;29;20075;-74
2023/03/07 01:35:25;;;;;;;67.00;40.53;;;7.60;99.90;;;;;;4934872;29;20023;-74
2023/03/07 01:37:54;;;;;;;65.10;44.13;;;7.60;99.90;;;;;;4919385;29;20062;-74
2023/03/07 01:40:22;;;;;;;54.13;34.17;;;7.60;99.90;;;;;;4936618;28;20500;-73
2023/03/07 01:42:48;;;;;;;67.40;47.65;;;7.50;99.90;;;;;;4935038;29;20051;-74
2023/03/07 01:45:14;;;;;;;56.33;35.83;;;7.50;99.90;;;;;;4934587;29;20027;-74
2023/03/07 01:47:43;;;;;;;64.35;40.15;;;7.40;99.90;;;;;;4934144;29;20023;-74
2023/03/07 01:50:16;;;;;;;59.53;37.50;;;7.30;99.90;;;;;;4935080;29;20042;-76
2023/03/07 01:52:47;;;;;;;61.90;40.20;;;7.40;99.90;;;;;;4934671;29;20023;-75
2023/03/07 01:55:26;;;;;;;67.30;43.08;;;7.40;99.90;;;;;;4936207;29;20027;-75
2023/03/07 01:58:09;;;;;;;62.22;43.05;;;7.40;99.90;;;;;;4934698;29;20090;-76
2023/03/07 02:00:37;;;;;;;75.57;45.58;;;7.50;99.90;;;;;;4921027;29;20039;-75
2023/03/07 02:03:09;;;;;;;65.82;41.90;;;7.50;99.90;;;;;;4935779;29;20549;-75
2023/03/07 02:05:51;;;;;;;61.88;41.05;;;7.60;99.90;;;;;;4934242;28;20166;-76
2023/03/07 02:08:21;;;;;;;70.13;44.58;;;7.60;99.90;;;;;;4918589;29;20504;-74
2023/03/07 02:10:48;;;;;;;72.85;47.03;;;7.60;99.90;;;;;;4936174;29;20032;-77
2023/03/07 02:13:14;;;;;;;70.63;45.80;;;7.60;99.90;;;;;;4933622;29;20481;-77
2023/03/07 02:15:41;;;;;;;73.45;46.90;;;7.60;99.90;;;;;;4934530;29;20035;-77
2023/03/07 02:18:08;;;;;;;62.75;37.50;;;7.70;99.90;;;;;;4934424;29;20081;-77
2023/03/07 02:20:46;;;;;;;52.20;35.55;;;7.70;99.90;;;;;;4934295;29;20032;-76
2023/03/07 02:23:24;;;;;;;55.35;35.15;;;7.80;99.90;;;;;;4934806;29;20036;-75
2023/03/07 02:26:15;;;;;;;61.33;34.88;;;7.80;99.90;;;;;;4934069;29;20046;-75
2023/03/07 02:28:43;;;;;;;51.30;32.90;;;7.80;99.90;;;;;;4934179;29;20044;-75
2023/03/07 02:31:10;;;;;;;50.97;31.42;;;7.80;99.90;;;;;;4935022;29;20068;-75
2023/03/07 02:33:38;;;;;;;50.15;31.42;;;7.80;99.90;;;;;;4925834;29;20119;-75
2023/03/07 02:36:11;;;;;;;49.78;32.17;;;7.80;99.90;;;;;;4918742;29;20035;-75
2023/03/07 02:38:46;;;;;;;50.88;32.22;;;7.80;99.90;;;;;;4933956;29;20039;-75
2023/03/07 02:41:14;;;;;;;47.80;29.85;;;7.90;99.90;;;;;;4918256;29;20059;-75
2023/03/07 02:43:40;;;;;;;44.05;27.52;;;7.90;99.90;;;;;;4917733;29;20038;-76
2023/03/07 02:46:09;;;;;;;45.42;27.30;;;7.80;99.90;;;;;;4933900;29;20433;-74
2023/03/07 02:48:34;;;;;;;39.47;25.45;;;7.90;99.90;;;;;;4933148;29;20036;-73
2023/03/07 02:51:00;;;;;;;45.45;27.63;;;7.80;99.90;;;;;;4935066;29;20059;-74
2023/03/07 02:53:27;;;;;;;42.17;25.27;;;7.90;99.90;;;;;;4917872;29;20028;-73
2023/03/07 02:55:53;;;;;;;42.03;25.80;;;7.90;99.90;;;;;;4933755;29;20024;-75
2023/03/07 02:58:19;;;;;;;39.58;25.17;;;7.90;99.90;;;;;;4917633;29;20074;-75
2023/03/07 03:00:45;;;;;;;37.92;23.15;;;7.90;99.90;;;;;;4933433;29;20127;-75
2023/03/07 03:03:10;;;;;;;40.65;25.65;;;7.90;99.90;;;;;;4926813;29;20046;-74
2023/03/07 03:05:37;;;;;;;47.88;28.05;;;7.80;99.90;;;;;;4921245;28;20024;-77
2023/03/07 03:08:03;;;;;;;46.05;28.30;;;7.90;99.90;;;;;;4933588;29;20036;-73
2023/03/07 03:10:29;;;;;;;46.92;27.80;;;7.80;99.90;;;;;;4934740;29;20027;-76
2023/03/07 03:12:57;;;;;;;45.03;28.73;;;7.90;99.90;;;;;;4917398;29;20181;-75
2023/03/07 03:15:23;;;;;;;44.95;29.75;;;7.90;99.90;;;;;;4934429;29;20126;-73
2023/03/07 03:17:51;;;;;;;43.08;27.58;;;7.90;99.90;;;;;;4933277;29;20044;-73
2023/03/07 03:20:18;;;;;;;47.15;29.20;;;7.90;99.90;;;;;;4917566;29;20039;-76
2023/03/07 03:22:43;;;;;;;41.92;27.05;;;7.90;99.90;;;;;;4934321;29;20400;-74
2023/03/07 03:25:12;;;;;;;42.47;25.23;;;7.90;99.90;;;;;;4933486;29;20284;-74
2023/03/07 03:27:40;;;;;;;37.20;24.70;;;7.90;99.90;;;;;;4917098;29;20024;-74
2023/03/07 03:30:09;;;;;;;43.95;25.85;;;7.90;99.90;;;;;;4917355;29;20043;-74
2023/03/07 03:32:39;;;;;;;37.30;23.60;;;7.90;99.90;;;;;;4934361;29;20027;-75
2023/03/07 03:35:07;;;;;;;39.25;24.83;;;7.90;99.90;;;;;;4933240;29;20039;-75
2023/03/07 03:37:33;;;;;;;43.85;26.70;;;7.90;99.90;;;;;;4917278;29;20087;-74
2023/03/07 03:40:05;;;;;;;45.72;26.48;;;7.90;99.90;;;;;;4933065;29;20390;-74
2023/03/07 03:42:32;;;;;;;44.80;27.98;;;7.90;99.90;;;;;;4934137;29;20035;-75
2023/03/07 03:44:59;;;;;;;42.78;25.80;;;7.90;99.90;;;;;;4934336;29;20020;-75
2023/03/07 03:47:25;;;;;;;41.33;26.45;;;7.90;99.90;;;;;;4932817;29;20039;-75
2023/03/07 03:49:52;;;;;;;40.72;23.88;;;7.90;99.90;;;;;;4917085;29;20028;-75
2023/03/07 03:52:19;;;;;;;37.90;24.73;;;7.90;99.90;;;;;;4916829;29;20028;-73
2023/03/07 03:54:45;;;;;;;45.90;29.40;;;7.90;99.90;;;;;;4934374;29;20035;-74
2023/03/07 03:57:14;;;;;;;51.75;39.40;;;7.80;99.90;;;;;;4916664;29;20028;-73
2023/03/07 03:59:40;;;;;;;44.95;30.75;;;7.60;99.90;;;;;;4934259;29;20032;-74
2023/03/07 04:02:06;;;;;;;48.55;29.90;;;7.60;99.90;;;;;;4932207;29;20102;-74
2023/03/07 04:04:32;;;;;;;48.60;31.05;;;7.50;99.90;;;;;;4934282;29;20089;-76
2023/03/07 04:06:57;;;;;;;49.00;32.33;;;7.50;99.90;;;;;;4915652;29;20044;-73
2023/03/07 04:09:23;;;;;;;45.83;31.98;;;7.50;99.90;;;;;;4917066;29;20107;-75
2023/03/07 04:11:49;;;;;;;44.95;29.77;;;7.50;99.90;;;;;;4919107;29;20032;-75
2023/03/07 04:14:16;;;;;;;46.55;31.08;;;7.50;99.90;;;;;;4936636;29;20039;-74
2023/03/07 04:16:42;;;;;;;55.55;38.72;;;7.50;99.90;;;;;;4936198;29;20067;-74
2023/03/07 04:19:11;;;;;;;67.72;39.63;;;7.50;99.90;;;;;;4937560;29;20107;-74
2023/03/07 04:21:39;;;;;;;65.70;43.30;;;7.50;99.90;;;;;;4920596;29;20032;-73
2023/03/07 04:24:06;;;;;;;75.20;46.22;;;7.50;99.90;;;;;;4937333;29;20086;-74
2023/03/07 04:26:33;;;;;;;67.50;44.75;;;7.50;99.90;;;;;;4920684;29;20378;-74
2023/03/07 04:28:59;;;;;;;63.40;43.92;;;7.40;99.90;;;;;;4937547;29;20036;-73
2023/03/07 04:31:29;;;;;;;68.05;40.30;;;7.40;99.90;;;;;;4920637;29;20059;-74
2023/03/07 04:33:57;;;;;;;67.35;41.67;;;7.40;99.90;;;;;;4946820;29;20028;-73
2023/03/07 04:36:24;;;;;;;66.95;42.78;;;7.40;99.90;;;;;;4935280;29;20035;-77
2023/03/07 04:38:50;;;;;;;64.03;39.35;;;7.40;99.90;;;;;;4935895;29;20088;-72
2023/03/07 04:41:20;;;;;;;61.17;39.05;;;7.30;99.90;;;;;;4920185;29;20438;-74
2023/03/07 04:43:48;;;;;;;61.67;39.80;;;7.30;99.90;;;;;;4920172;29;20039;-73
2023/03/07 04:46:16;;;;;;;53.63;34.85;;;7.30;99.90;;;;;;4937155;29;20024;-74
2023/03/07 04:48:42;;;;;;;54.15;36.33;;;7.30;99.90;;;;;;4936035;29;20454;-74
2023/03/07 04:51:07;;;;;;;64.68;40.58;;;7.20;99.90;;;;;;4937108;29;20107;-74
2023/03/07 04:53:34;;;;;;;58.70;38.95;;;7.10;99.90;;;;;;4935909;29;20477;-73
2023/03/07 04:56:02;;;;;;;55.42;36.92;;;7.00;99.90;;;;;;4935790;29;20038;-73
2023/03/07 04:58:30;;;;;;;57.70;38.15;;;7.00;99.90;;;;;;4935357;29;20031;-74
2023/03/07 05:00:56;;;;;;;86.45;51.13;;;7.00;99.90;;;;;;4937331;29;20035;-73
2023/03/07 05:03:24;;;;;;;69.18;45.35;;;6.90;99.90;;;;;;4919345;29;20046;-74
2023/03/07 05:05:49;;;;;;;62.90;42.55;;;6.80;99.90;;;;;;4936383;29;20039;-74
2023/03/07 05:08:15;;;;;;;63.05;45.70;;;6.70;99.90;;;;;;4919596;29;20042;-74
2023/03/07 05:10:42;;;;;;;57.90;41.05;;;6.60;99.90;;;;;;4919499;29;20114;-74
2023/03/07 05:13:08;;;;;;;53.38;39.13;;;6.60;99.90;;;;;;4920204;29;20040;-75
2023/03/07 05:15:34;;;;;;;56.53;37.80;;;6.60;99.90;;;;;;4916695;29;20028;-74
2023/03/07 05:18:00;;;;;;;62.55;42.22;;;6.70;99.90;;;;;;4922469;29;20042;-74
2023/03/07 05:20:28;;;;;;;56.80;37.70;;;6.70;99.90;;;;;;4919836;29;20035;-76
2023/03/07 05:22:55;;;;;;;54.25;38.25;;;6.70;99.90;;;;;;4918429;29;20038;-74
2023/03/07 05:25:21;;;;;;;56.63;40.60;;;6.70;99.90;;;;;;4920233;29;20027;-76
2023/03/07 05:27:48;;;;;;;63.92;38.40;;;6.70;99.90;;;;;;4920354;29;20091;-75
2023/03/07 05:30:15;;;;;;;62.53;42.83;;;6.80;99.90;;;;;;4936244;29;20050;-73
2023/03/07 05:32:41;;;;;;;69.63;45.55;;;6.80;99.90;;;;;;4919392;29;20031;-76
2023/03/07 05:35:11;;;;;;;58.10;42.17;;;6.90;99.90;;;;;;4935105;29;20024;-77
2023/03/07 05:37:38;;;;;;;71.22;45.63;;;6.90;99.90;;;;;;4936470;29;20046;-77
2023/03/07 05:40:08;;;;;;;69.13;47.42;;;7.60;99.90;;;;;;4926037;29;20024;-75
2023/03/07 05:42:37;;;;;;;62.33;45.88;;;8.10;99.90;;;;;;4902979;29;20457;-78
2023/03/07 05:45:04;;;;;;;73.20;47.08;;;8.50;99.90;;;;;;4936444;29;20039;-76
2023/03/07 05:47:30;;;;;;;75.00;50.13;;;8.90;99.90;;;;;;4934883;29;20075;-76
2023/03/07 05:49:56;;;;;;;64.50;44.90;;;9.20;99.90;;;;;;4919469;29;20122;-77
2023/03/07 05:52:22;;;;;;;56.95;40.63;;;9.80;99.90;;;;;;4935834;29;20130;-77
2023/03/07 05:54:48;;;;;;;62.95;43.45;;;10.30;99.90;;;;;;4918945;29;20111;-77
2023/03/07 05:57:14;;;;;;;59.08;42.50;;;10.70;99.90;;;;;;4940192;29;20131;-75
2023/03/07 05:59:40;;;;;;;57.88;41.92;;;11.10;99.90;;;;;;4936428;29;20042;-78
2023/03/07 06:02:07;;;;;;;57.50;41.03;;;11.50;99.90;;;;;;4934641;29;20046;-76
2023/03/07 06:04:33;;;;;;;54.22;38.45;;;11.80;99.90;;;;;;4936157;29;20062;-78
2023/03/07 06:06:59;;;;;;;60.40;39.28;;;12.10;99.90;;;;;;4935047;29;20142;-77
2023/03/07 06:09:26;;;;;;;52.45;36.80;;;12.40;99.90;;;;;;4918879;29;20157;-77
2023/03/07 06:11:55;;;;;;;49.60;33.40;;;12.40;99.90;;;;;;4918632;29;20082;-77
2023/03/07 06:14:21;;;;;;;48.03;32.08;;;12.90;99.90;;;;;;4919683;29;20035;-73
2023/03/07 06:16:47;;;;;;;51.55;34.22;;;13.10;99.90;;;;;;4918286;29;20032;-76
2023/03/07 06:19:13;;;;;;;47.53;33.05;;;13.10;99.90;;;;;;4933635;29;20028;-77
2023/03/07 06:21:41;;;;;;;48.03;31.40;;;12.60;99.90;;;;;;4918985;29;20059;-77
2023/03/07 06:24:07;;;;;;;47.30;33.35;;;12.50;99.90;;;;;;4918300;29;20032;-76
2023/03/07 06:26:34;;;;;;;60.10;38.28;;;11.90;99.90;;;;;;4935253;29;20023;-74
2023/03/07 06:29:00;;;;;;;47.97;32.22;;;10.90;99.90;;;;;;4935199;29;20355;-77
2023/03/07 06:31:27;;;;;;;56.65;31.77;;;10.70;99.90;;;;;;4935029;29;20024;-77
2023/03/07 06:33:53;;;;;;;45.53;30.60;;;10.50;99.90;;;;;;4917463;29;20126;-77
2023/03/07 06:36:21;;;;;;;47.95;34.38;;;10.20;99.90;;;;;;4933802;29;20031;-76
2023/03/07 06:38:54;;;;;;;43.15;29.38;;;10.00;99.90;;;;;;4917543;29;20050;-76
2023/03/07 06:41:20;;;;;;;40.15;29.35;;;9.90;99.90;;;;;;4935194;29;20350;-75
2023/03/07 06:43:52;;;;;;;41.67;28.27;;;9.50;99.90;;;;;;4917888;29;20036;-76
2023/03/07 06:46:23;;;;;;;39.80;26.80;;;9.40;99.90;;;;;;4933695;29;20028;-77
2023/03/07 06:48:50;;;;;;;41.20;26.42;;;9.30;99.90;;;;;;4917402;29;20031;-77
2023/03/07 06:51:18;;;;;;;34.60;24.70;;;9.60;99.90;;;;;;4918310;29;20453;-75
2023/03/07 06:53:46;;;;;;;40.95;27.98;;;9.70;99.90;;;;;;4917226;29;20398;-78
2023/03/07 06:56:12;;;;;;;42.67;28.02;;;10.10;99.90;;;;;;4934109;29;20028;-77
2023/03/07 06:58:38;;;;;;;41.05;26.70;;;10.10;99.90;;;;;;4917415;29;20379;-77
2023/03/07 07:01:05;;;;;;;41.35;26.67;;;10.10;99.90;;;;;;4916960;29;21224;-78
2023/03/07 07:03:33;;;;;;;39.40;23.55;;;10.60;99.90;;;;;;4940283;28;20031;-77
2023/03/07 07:06:01;;;;;;;45.92;30.25;;;10.70;99.90;;;;;;4917286;29;20051;-78
2023/03/07 07:08:29;;;;;;;53.58;34.35;;;10.90;99.90;;;;;;4917146;29;20031;-77
2023/03/07 07:10:58;;;;;;;56.75;32.92;;;11.20;99.90;;;;;;4917293;29;20175;-77
2023/03/07 07:13:24;;;;;;;53.75;28.50;;;11.40;99.90;;;;;;4933315;29;20385;-78
2023/03/07 07:15:50;;;;;;;47.20;28.92;;;11.30;99.90;;;;;;4933178;29;20032;-76
2023/03/07 07:18:16;;;;;;;40.80;27.75;;;11.40;99.90;;;;;;4933498;29;20023;-77
2023/03/07 07:20:42;;;;;;;41.47;26.33;;;11.50;99.90;;;;;;4916357;29;20036;-76
2023/03/07 07:23:08;;;;;;;39.42;24.75;;;11.70;99.90;;;;;;4917514;29;20167;-78
2023/03/07 07:25:36;;;;;;;34.15;24.05;;;11.80;99.90;;;;;;4934422;29;20027;-76
2023/03/07 07:28:02;;;;;;;38.65;22.88;;;11.70;99.90;;;;;;4934212;29;20031;-75
2023/03/07 07:30:28;;;;;;;36.55;22.38;;;11.80;99.90;;;;;;4927129;29;20036;-76
2023/03/07 07:32:54;;;;;;;37.15;20.63;;;11.70;99.90;;;;;;4914553;29;20078;-76
2023/03/07 07:35:21;;;;;;;31.63;20.67;;;11.80;99.90;;;;;;4917097;29;20024;-75
2023/03/07 07:37:47;;;;;;;39.75;22.00;;;11.90;99.90;;;;;;4917106;29;20091;-76
2023/03/07 07:40:14;;;;;;;40.65;25.25;;;12.10;99.90;;;;;;4916115;29;20028;-77
2023/03/07 07:42:42;;;;;;;38.40;25.95;;;12.00;99.90;;;;;;4911123;29;20048;-76
2023/03/07 07:45:16;;;;;;;38.17;22.83;;;12.10;99.90;;;;;;4917472;29;20019;-76
2023/03/07 07:47:42;;;;;;;38.63;23.45;;;12.40;99.90;;;;;;4936903;29;20106;-77
2023/03/07 07:50:09;;;;;;;34.80;23.00;;;12.60;99.90;;;;;;4936441;29;20040;-76
2023/03/07 07:52:35;;;;;;;37.35;24.33;;;12.70;99.90;;;;;;4938849;29;20023;-76
2023/03/07 07:55:01;;;;;;;36.70;24.52;;;12.70;99.90;;;;;;4936314;29;20519;-77
2023/03/07 07:57:27;;;;;;;26.75;18.50;;;12.90;99.90;;;;;;4919372;29;20062;-76
2023/03/07 07:59:55;;;;;;;32.13;20.55;;;13.00;99.90;;;;;;4917951;29;20486;-76
2023/03/07 08:02:21;;;;;;;30.65;18.65;;;13.10;99.90;;;;;;4921167;29;20032;-75
2023/03/07 08:04:47;;;;;;;32.92;18.80;;;12.80;99.90;;;;;;4937982;29;20055;-76
2023/03/07 08:07:13;;;;;;;28.60;19.60;;;12.80;99.90;;;;;;4937156;29;20052;-77
2023/03/07 08:09:39;;;;;;;31.08;20.33;;;12.90;99.90;;;;;;4937994;29;20471;-75
2023/03/07 08:12:05;;;;;;;29.02;17.75;;;13.00;99.90;;;;;;4937526;29;20030;-74
2023/03/07 08:14:32;;;;;;;33.95;19.38;;;12.70;99.90;;;;;;4937454;29;20031;-76
2023/03/07 08:16:59;;;;;;;31.98;20.25;;;12.90;99.90;;;;;;4936206;29;20050;-76
2023/03/07 08:19:25;;;;;;;34.47;20.02;;;13.00;99.90;;;;;;4937906;29;20020;-77
2023/03/07 08:21:51;;;;;;;35.53;20.15;;;13.00;99.90;;;;;;4937689;29;20066;-75
2023/03/07 08:24:17;;;;;;;36.47;19.52;;;13.10;99.90;;;;;;4937539;29;20466;-75
2023/03/07 08:26:43;;;;;;;28.60;18.35;;;13.00;99.90;;;;;;4937854;29;20022;-76
2023/03/07 08:29:12;;;;;;;25.60;17.05;;;12.40;99.90;;;;;;4938502;29;20118;-76
2023/03/07 08:31:38;;;;;;;30.73;16.20;;;12.50;99.90;;;;;;4937792;29;20030;-75
2023/03/07 08:34:04;;;;;;;27.10;16.20;;;12.40;99.90;;;;;;4937716;29;20027;-77
2023/03/07 08:36:30;;;;;;;27.77;16.23;;;12.50;99.90;;;;;;4937736;29;20024;-75
2023/03/07 08:38:55;;;;;;;25.75;15.50;;;12.50;99.90;;;;;;4937255;29;20034;-75
2023/03/07 08:41:22;;;;;;;26.55;16.20;;;12.40;99.90;;;;;;4937890;29;20028;-77
2023/03/07 08:43:47;;;;;;;27.75;15.80;;;12.50;99.90;;;;;;4937315;29;20040;-77
2023/03/07 08:46:13;;;;;;;24.85;16.23;;;12.60;99.90;;;;;;4937893;29;20386;-77
2023/03/07 08:48:39;;;;;;;24.85;14.25;;;12.70;99.90;;;;;;4937378;29;20031;-75
2023/03/07 08:51:08;;;;;;;25.00;15.23;;;12.90;99.50;;;;;;4937608;29;20048;-76
2023/03/07 08:53:34;;;;;;;24.73;14.30;;;13.30;99.90;;;;;;4937155;29;20489;-77
2023/03/07 08:56:00;;;;;;;22.60;14.68;;;13.50;99.90;;;;;;4937526;29;20032;-77
2023/03/07 08:58:25;;;;;;;27.80;15.75;;;13.70;99.90;;;;;;4937120;29;20098;-76
2023/03/07 09:00:51;;;;;;;25.73;14.82;;;13.80;99.40;;;;;;4937403;29;20032;-77
2023/03/07 09:03:17;;;;;;;21.23;14.90;;;14.00;98.00;;;;;;4937081;29;20043;-77
2023/03/07 09:05:43;;;;;;;22.55;14.00;;;14.00;97.20;;;;;;4936842;29;20044;-78
2023/03/07 09:08:09;;;;;;;23.60;15.30;;;14.10;98.70;;;;;;4937190;29;20027;-76
2023/03/07 09:10:35;;;;;;;24.52;15.45;;;14.10;99.90;;;;;;4935968;29;20046;-77
2023/03/07 09:13:01;;;;;;;26.65;15.85;;;13.50;97.50;;;;;;4936982;29;20036;-76
2023/03/07 09:15:27;;;;;;;25.00;16.27;;;13.60;99.30;;;;;;4936955;29;20087;-77
2023/03/07 09:17:53;;;;;;;28.65;16.05;;;13.30;99.90;;;;;;4937018;29;20032;-78
2023/03/07 09:20:19;;;;;;;24.52;15.95;;;13.30;99.90;;;;;;4936967;29;20024;-76
2023/03/07 09:22:45;;;;;;;27.52;15.07;;;13.30;99.90;;;;;;4936753;29;20110;-75
2023/03/07 09:25:11;;;;;;;24.15;15.32;;;12.90;99.90;;;;;;4936770;29;20107;-75
2023/03/07 09:27:37;;;;;;;24.25;14.10;;;13.30;99.90;;;;;;4937075;29;20103;-76
2023/03/07 09:30:04;;;;;;;23.90;14.25;;;13.60;99.90;;;;;;4936696;29;20036;-76
2023/03/07 09:32:32;;;;;;;26.10;13.60;;;13.80;99.90;;;;;;4936519;29;20028;-76
2023/03/07 09:34:58;;;;;;;37.65;15.18;;;14.00;99.90;;;;;;4936770;29;20035;-77
2023/03/07 09:37:23;;;;;;;23.10;14.75;;;14.20;99.90;;;;;;4936415;29;20028;-76
2023/03/07 09:39:49;;;;;;;26.60;15.02;;;14.40;99.90;;;;;;4936541;29;20062;-76
2023/03/07 09:42:35;;;;;;;26.20;15.50;;;14.50;99.90;;;;;;4936219;29;20082;-76
2023/03/07 09:45:19;;;;;;;26.63;17.38;;;14.50;99.90;;;;;;4921508;29;20035;-76
2023/03/07 09:48:34;;;;;;;26.45;16.88;;;14.50;99.90;;;;;;4919293;29;20028;-75
2023/03/07 09:51:03;;;;;;;24.63;16.70;;;14.30;99.90;;;;;;4859324;29;20052;-76
2023/03/07 09:53:48;;;;;;;28.08;16.00;;;14.20;99.90;;;;;;4859007;29;20659;-77
2023/03/07 09:56:24;;;;;;;26.17;14.50;;;14.30;99.90;;;;;;4858942;29;20042;-75
2023/03/07 09:59:13;;;;;;;24.13;15.32;;;14.30;99.90;;;;;;4859211;29;20048;-76
2023/03/07 10:01:43;;;;;;;24.23;13.77;;;14.50;99.90;;;;;;4859076;29;20052;-76
2023/03/07 10:04:18;;;;;;;23.98;13.95;;;14.50;99.90;;;;;;4859169;29;20033;-76
2023/03/07 10:06:56;;;;;;;26.33;13.80;;;14.30;99.90;;;;;;4858441;29;20097;-76
2023/03/07 10:09:23;;;;;;;24.00;12.70;;;14.70;99.90;;;;;;4856939;29;20045;-76
2023/03/07 10:12:01;;;;;;;21.73;12.82;;;15.00;99.90;;;;;;4857823;29;20158;-78
2023/03/07 10:14:33;;;;;;;19.00;11.27;;;14.90;99.90;;;;;;4857955;29;20220;-77
2023/03/07 10:17:05;;;;;;;23.08;13.05;;;14.90;99.90;;;;;;4857865;29;20056;-77
2023/03/07 10:19:53;;;;;;;25.02;11.48;;;15.00;99.90;;;;;;4858092;29;20439;-76
2023/03/07 10:22:50;;;;;;;22.60;11.77;;;15.00;99.90;;;;;;4858042;29;20052;-76
2023/03/07 10:25:28;;;;;;;21.08;12.15;;;15.10;99.90;;;;;;4857752;29;20169;-77
2023/03/07 10:28:01;;;;;;;22.13;12.05;;;15.20;99.90;;;;;;4903600;29;20067;-76
2023/03/07 10:30:31;;;;;;;17.67;11.38;;;14.80;99.90;;;;;;4934987;29;20453;-73
2023/03/07 10:32:59;;;;;;;22.70;11.02;;;14.80;99.90;;;;;;4934487;29;20034;-77
2023/03/07 10:35:39;;;;;;;19.67;10.32;;;14.80;99.90;;;;;;4934679;29;20040;-76
2023/03/07 10:38:14;;;;;;;19.85;11.82;;;15.00;99.90;;;;;;4923844;29;20071;-77
2023/03/07 10:40:52;;;;;;;16.98;10.55;;;15.20;99.90;;;;;;4934452;29;20102;-77
2023/03/07 10:43:28;;;;;;;17.63;9.77;;;15.20;99.90;;;;;;4934566;29;20494;-74
2023/03/07 10:46:21;;;;;;;17.80;10.05;;;15.00;99.90;;;;;;4934607;29;20024;-76
2023/03/07 10:48:53;;;;;;;16.77;9.20;;;14.80;99.90;;;;;;4934346;29;20485;-76
2023/03/07 10:51:25;;;;;;;22.33;10.77;;;14.80;99.90;;;;;;4934356;29;20039;-74
2023/03/07 10:53:52;;;;;;;23.35;11.75;;;15.20;99.90;;;;;;4934585;29;20024;-74
2023/03/07 10:56:18;;;;;;;19.38;11.13;;;15.20;99.90;;;;;;4934307;29;20032;-73
2023/03/07 10:59:04;;;;;;;19.00;9.77;;;14.70;99.90;;;;;;4934521;29;20087;-76
2023/03/07 11:01:32;;;;;;;20.25;11.77;;;14.80;99.90;;;;;;4934314;29;20040;-76
2023/03/07 11:03:58;;;;;;;25.70;10.88;;;14.70;99.90;;;;;;4934923;29;20075;-76
2023/03/07 11:06:38;;;;;;;22.95;12.52;;;15.00;91.00;;;;;;4908013;29;1130284;-76
2023/03/07 11:09:14;;;;;;;21.52;11.82;;;15.00;90.50;;;;;;4934741;29;20478;-77
2023/03/07 11:11:49;;;;;;;19.25;10.77;;;14.70;89.60;;;;;;4934980;29;20019;-76
2023/03/07 11:14:15;;;;;;;19.15;11.48;;;14.50;90.30;;;;;;4934922;29;20042;-75
2023/03/07 11:16:46;;;;;;;22.92;12.90;;;14.70;91.30;;;;;;4934914;29;20098;-76
2023/03/07 11:19:28;;;;;;;21.38;11.80;;;14.80;91.80;;;;;;4934924;29;20051;-74
2023/03/07 11:21:55;;;;;;;20.75;12.30;;;15.10;91.90;;;;;;4934745;29;20081;-76
2023/03/07 11:24:28;;;;;;;22.02;13.07;;;14.90;90.10;;;;;;4934474;29;20081;-76
2023/03/07 11:26:56;;;;;;;;;;;15.10;91.70;;;;;;4918308;29;20039;-76
2023/03/07 11:29:21;;;;;;;23.05;11.95;;;14.80;90.00;;;;;;4934443;29;20288;-76
2023/03/07 11:32:03;;;;;;;20.65;12.18;;;15.10;90.90;;;;;;4935106;29;20043;-75
2023/03/07 11:35:14;;;;;;;16.98;10.77;;;15.60;91.60;;;;;;4934681;29;20031;-76
2023/03/07 11:37:49;;;;;;;24.27;12.00;;;15.50;90.20;;;;;;4930844;29;20099;-75
2023/03/07 11:40:22;;;;;;;21.02;11.70;;;15.80;90.50;;;;;;4934506;29;20703;-73
2023/03/07 11:43:13;;;;;;;21.70;11.40;;;16.00;90.80;;;;;;4934656;29;20035;-76
2023/03/07 11:46:10;;;;;;;21.70;10.75;;;16.30;90.10;;;;;;4934315;29;20397;-76
2023/03/07 11:48:55;;;;;;;23.02;12.57;;;16.40;91.20;;;;;;4934438;29;20114;-75
2023/03/07 11:51:34;;;;;;;18.65;10.93;;;16.40;90.40;;;;;;4934547;29;20031;-75
2023/03/07 11:54:37;;;;;;;24.30;12.23;;;16.30;90.50;;;;;;4934526;29;20494;-76
2023/03/07 11:57:46;;;;;;;22.85;13.45;;;16.30;91.10;;;;;;4934399;29;20107;-76
2023/03/07 12:00:34;;;;;;;15.13;8.80;;;16.50;90.70;;;;;;4934514;29;20036;-72
2023/03/07 12:03:19;;;;;;;11.80;6.15;;;16.40;90.60;;;;;;4934529;29;20044;-76
2023/03/07 12:06:06;;;;;;;13.68;6.88;;;16.50;89.10;;;;;;4934166;29;20466;-75
2023/03/07 12:08:37;;;;;;;15.48;6.43;;;16.60;90.40;;;;;;4934193;29;20034;-75
2023/03/07 12:11:44;;;;;;;11.25;5.43;;;16.40;87.10;;;;;;4934402;29;20035;-75
2023/03/07 12:14:31;;;;;;;12.02;6.60;;;16.10;85.20;;;;;;4857249;29;20071;-75
2023/03/07 12:17:25;;;;;;;9.15;5.18;;;16.10;85.30;;;;;;4857230;29;20041;-74
2023/03/07 12:20:17;;;;;;;14.52;6.80;;;16.30;88.70;;;;;;4857003;29;20041;-76
2023/03/07 12:22:58;;;;;;;20.27;12.50;;;16.30;89.20;;;;;;4856951;29;20045;-76
2023/03/07 12:25:43;;;;;;;16.92;10.20;;;16.20;88.60;;;;;;4857300;29;20037;-75
2023/03/07 12:28:16;;;;;;;10.00;5.63;;;16.20;86.30;;;;;;4857142;29;20038;-76
2023/03/07 12:31:19;;;;;;;12.93;6.60;;;16.10;87.00;;;;;;4856704;29;20472;-75
2023/03/07 12:33:51;;;;;;;;;;;16.10;85.90;;;;;;4860667;29;20524;-76
2023/03/07 12:36:31;;;;;;;19.20;8.82;;;15.90;85.10;;;;;;4860646;29;19960;-76
2023/03/07 12:39:18;;;;;;;17.00;9.02;;;16.00;88.20;;;;;;4860115;29;20045;-75
2023/03/07 12:41:53;;;;;;;14.27;7.55;;;16.10;87.00;;;;;;4860296;29;20542;-74
2023/03/07 12:44:30;;;;;;;13.52;6.20;;;16.10;86.50;;;;;;4860305;29;20602;-72
2023/03/07 12:47:10;;;;;;;9.73;5.57;;;16.00;85.10;;;;;;4860260;29;20405;-73
2023/03/07 12:50:01;;;;;;;10.90;5.82;;;16.00;84.60;;;;;;4860297;29;20036;-75